createdAt,value
2023-04-03T00:02:01.498Z,40.89
2023-04-03T00:04:47.807Z,41.20
2023-04-03T00:07:38.884Z,41.42
2023-04-03T00:10:24.933Z,41.51
2023-04-03T00:13:41.359Z,42.29
2023-04-03T00:17:10.613Z,42.62
2023-04-03T00:19:56.639Z,41.67
2023-04-03T00:22:42.341Z,41.56
2023-04-03T00:25:27.947Z,41.94
2023-04-03T00:28:13.651Z,41.86
2023-04-03T00:31:27.401Z,42.53
2023-04-03T00:34:13.316Z,41.87
2023-04-03T00:36:59.148Z,42.02
2023-04-03T00:39:44.847Z,42.29
2023-04-03T00:42:48.266Z,42.92
2023-04-03T00:45:37.955Z,42.10
2023-04-03T00:52:55.552Z,42.02
2023-04-03T00:55:41.933Z,42.42
2023-04-03T00:58:34.826Z,42.55
2023-04-03T01:01:39.752Z,42.62
2023-04-03T01:04:40.886Z,43.73
2023-04-03T01:07:31.854Z,42.72
2023-04-03T01:10:20.622Z,42.83
2023-04-03T01:14:25.392Z,43.65
2023-04-03T01:17:36.370Z,45.06
2023-04-03T01:20:38.653Z,43.24
2023-04-03T01:23:33.305Z,42.92
2023-04-03T01:26:19.233Z,43.61
2023-04-03T01:29:10.934Z,43.78
2023-04-03T01:31:58.831Z,43.97
2023-04-03T01:34:44.662Z,43.85
2023-04-03T01:37:30.547Z,43.78
2023-04-03T01:40:16.472Z,43.58
2023-04-03T01:43:02.893Z,43.56
2023-04-03T01:45:50.392Z,44.67
2023-04-03T01:48:37.003Z,43.44
2023-04-03T01:51:23.044Z,43.22
2023-04-03T01:54:56.640Z,45.67
2023-04-03T01:57:42.610Z,43.81
2023-04-03T02:00:28.551Z,43.87
2023-04-03T02:03:14.151Z,44.25
2023-04-03T02:05:59.881Z,44.56
2023-04-03T02:08:45.772Z,45.17
2023-04-03T02:11:41.679Z,44.69
2023-04-03T02:14:28.492Z,44.59
2023-04-03T02:17:14.423Z,44.77
2023-04-03T02:20:00.747Z,44.40
2023-04-03T02:22:46.730Z,45.04
2023-04-03T02:25:32.926Z,45.19
2023-04-03T02:28:18.580Z,44.98
2023-04-03T02:31:05.353Z,44.98
2023-04-03T02:33:51.806Z,45.34
2023-04-03T02:36:38.345Z,44.76
2023-04-03T02:39:27.395Z,44.51
2023-04-03T02:42:14.680Z,45.26
2023-04-03T02:45:01.539Z,45.16
2023-04-03T02:47:47.559Z,44.97
2023-04-03T02:50:33.106Z,45.32
2023-04-03T02:53:19.453Z,45.61
2023-04-03T02:56:08.916Z,45.53
2023-04-03T02:58:55.298Z,45.38
2023-04-03T03:01:41.384Z,45.03
2023-04-03T03:04:27.327Z,45.13
2023-04-03T03:07:12.857Z,45.63
2023-04-03T03:09:58.634Z,45.79
2023-04-03T03:12:46.419Z,45.37
2023-04-03T03:15:32.272Z,45.24
2023-04-03T03:18:17.918Z,45.74
2023-04-03T03:21:04.591Z,45.52
2023-04-03T03:23:51.866Z,45.35
2023-04-03T03:26:37.678Z,46.23
2023-04-03T03:29:24.414Z,45.71
2023-04-03T03:32:10.280Z,45.97
2023-04-03T03:34:56.017Z,45.95
2023-04-03T03:37:41.703Z,46.17
2023-04-03T03:40:28.047Z,46.39
2023-04-03T03:43:13.676Z,45.80
2023-04-03T03:45:59.467Z,45.93
2023-04-03T03:48:46.651Z,46.34
2023-04-03T03:51:32.287Z,46.03
2023-04-03T03:54:17.919Z,45.83
2023-04-03T03:57:03.815Z,46.71
2023-04-03T03:59:52.746Z,46.75
2023-04-03T04:02:39.482Z,46.08
2023-04-03T04:05:25.329Z,46.71
2023-04-03T04:08:12.573Z,46.93
2023-04-03T04:10:58.697Z,46.53
2023-04-03T04:13:44.449Z,46.52
2023-04-03T04:16:32.595Z,46.43
2023-04-03T04:19:23.302Z,46.94
2023-04-03T04:22:08.996Z,47.26
2023-04-03T04:24:54.814Z,46.74
2023-04-03T04:27:40.594Z,46.98
2023-04-03T04:30:28.451Z,47.38
2023-04-03T04:33:17.342Z,47.32
2023-04-03T04:36:04.211Z,46.75
2023-04-03T04:38:53.856Z,47.05
2023-04-03T04:41:41.840Z,46.98
2023-04-03T04:44:29.131Z,46.78
2023-04-03T04:47:30.104Z,47.46
2023-04-03T04:50:16.268Z,46.98
2023-04-03T04:53:02.299Z,47.08
2023-04-03T04:55:48.082Z,46.91
2023-04-03T04:58:33.747Z,46.83
2023-04-03T05:01:21.094Z,47.00
2023-04-03T05:04:34.401Z,47.11
2023-04-03T05:08:34.452Z,48.57
2023-04-03T05:12:41.326Z,48.46
2023-04-03T05:15:27.787Z,47.17
2023-04-03T05:18:13.779Z,46.88
2023-04-03T05:21:07.976Z,47.33
2023-04-03T05:23:53.790Z,47.11
2023-04-03T05:26:40.606Z,47.06
2023-04-03T05:29:27.484Z,47.19
2023-04-03T05:37:23.576Z,47.15
2023-04-03T05:40:12.131Z,47.20
2023-04-03T05:43:02.006Z,47.50
2023-04-03T05:45:53.218Z,47.04
2023-04-03T05:48:40.914Z,46.71
2023-04-03T05:51:32.950Z,46.74
2023-04-03T05:54:34.674Z,46.99
2023-04-03T05:57:33.104Z,47.02
2023-04-03T06:00:19.768Z,47.11
2023-04-03T06:03:15.099Z,47.28
2023-04-03T06:06:04.717Z,47.07
2023-04-03T06:08:51.214Z,47.13
2023-04-03T06:11:37.185Z,47.10
2023-04-03T06:14:22.882Z,47.08
2023-04-03T06:17:10.054Z,47.35
2023-04-03T06:19:58.933Z,47.75
2023-04-03T06:22:45.519Z,47.08
2023-04-03T06:25:34.717Z,47.84
2023-04-03T06:28:20.870Z,47.67
2023-04-03T06:31:06.764Z,47.30
2023-04-03T06:33:53.353Z,47.36
2023-04-03T06:36:40.232Z,47.71
2023-04-03T06:39:26.656Z,47.85
2023-04-03T06:42:14.902Z,48.08
2023-04-03T06:45:13.701Z,47.88
2023-04-03T06:48:05.289Z,48.72
2023-04-03T06:50:51.790Z,48.80
2023-04-03T06:53:37.860Z,48.30
2023-04-03T06:56:24.090Z,48.26
2023-04-03T06:59:10.810Z,48.36
2023-04-03T07:02:02.495Z,48.61
2023-04-03T07:04:49.087Z,48.93
2023-04-03T07:07:39.680Z,48.41
2023-04-03T07:10:26.696Z,48.95
2023-04-03T07:13:14.974Z,49.09
2023-04-03T07:16:07.818Z,48.82
2023-04-03T07:19:00.402Z,48.44
2023-04-03T07:21:49.316Z,48.48
2023-04-03T07:24:35.811Z,48.98
2023-04-03T07:27:21.569Z,48.31
2023-04-03T07:30:08.842Z,48.29
2023-04-03T07:32:54.754Z,48.40
2023-04-03T07:35:43.859Z,48.04
2023-04-03T07:38:30.159Z,48.23
2023-04-03T07:41:18.625Z,48.50
2023-04-03T07:44:05.698Z,48.06
2023-04-03T07:46:51.988Z,48.43
2023-04-03T07:49:40.695Z,48.11
2023-04-03T07:52:26.847Z,48.15
2023-04-03T07:55:12.911Z,47.99
2023-04-03T07:57:59.028Z,47.98
2023-04-03T08:00:45.256Z,47.59
2023-04-03T08:03:31.311Z,47.46
2023-04-03T08:06:19.967Z,47.35
2023-04-03T08:09:07.580Z,47.39
2023-04-03T08:11:54.608Z,46.98
2023-04-03T08:14:40.867Z,46.71
2023-04-03T08:17:27.379Z,46.51
2023-04-03T08:20:13.679Z,46.33
2023-04-03T08:22:59.584Z,46.33
2023-04-03T08:25:45.659Z,46.02
2023-04-03T08:28:31.325Z,45.61
2023-04-03T08:31:19.613Z,45.56
2023-04-03T08:34:05.226Z,45.85
2023-04-03T08:36:51.044Z,45.76
2023-04-03T08:39:36.786Z,45.39
2023-04-03T08:42:54.770Z,45.14
2023-04-03T08:45:52.354Z,45.40
2023-04-03T08:48:42.670Z,45.26
2023-04-03T08:51:28.934Z,45.36
2023-04-03T08:54:35.537Z,45.24
2023-04-03T08:57:37.460Z,45.25
2023-04-03T09:00:25.451Z,45.18
2023-04-03T09:03:15.103Z,44.84
2023-04-03T09:06:23.047Z,43.43
2023-04-03T09:09:16.139Z,44.70
2023-04-03T09:12:16.898Z,43.98
2023-04-03T09:15:24.837Z,44.00
2023-04-03T09:18:33.124Z,43.94
2023-04-03T09:21:29.820Z,43.03
2023-04-03T09:24:17.350Z,43.73
2023-04-03T09:27:06.845Z,43.73
2023-04-03T09:29:55.361Z,43.59
2023-04-03T09:32:41.730Z,43.51
2023-04-03T09:35:40.609Z,43.38
2023-04-03T09:38:35.077Z,43.57
2023-04-03T09:41:21.249Z,43.53
2023-04-03T09:44:22.391Z,42.80
2023-04-03T09:47:25.278Z,43.04
2023-04-03T09:50:14.268Z,43.17
2023-04-03T09:53:00.204Z,43.56
2023-04-03T09:55:46.831Z,43.09
2023-04-03T09:58:50.530Z,43.05
2023-04-03T10:01:40.005Z,43.14
2023-04-03T10:04:27.007Z,42.95
2023-04-03T10:07:27.963Z,43.36
2023-04-03T10:10:25.013Z,43.40
2023-04-03T10:13:22.218Z,43.52
2023-04-03T10:16:10.459Z,43.46
2023-04-03T10:19:19.762Z,43.90
2023-04-03T10:22:28.990Z,44.02
2023-04-03T10:25:17.552Z,43.58
2023-04-03T10:28:31.054Z,43.64
2023-04-03T10:31:25.888Z,43.99
2023-04-03T10:34:26.085Z,44.04
2023-04-03T10:37:54.759Z,44.30
2023-04-03T10:40:58.908Z,43.96
2023-04-03T10:44:05.192Z,43.80
2023-04-03T10:46:54.899Z,43.95
2023-04-03T10:49:42.544Z,43.50
2023-04-03T10:53:11.318Z,43.25
2023-04-03T10:55:59.612Z,43.53
2023-04-03T10:59:19.007Z,43.19
2023-04-03T11:02:34.854Z,43.16
2023-04-03T11:05:45.018Z,43.26
2023-04-03T11:08:43.687Z,43.43
2023-04-03T11:11:36.361Z,43.67
2023-04-03T11:14:28.544Z,43.67
2023-04-03T11:17:20.462Z,43.37
2023-04-03T11:20:28.746Z,43.53
2023-04-03T11:23:48.741Z,43.33
2023-04-03T11:26:40.905Z,43.76
2023-04-03T11:29:37.720Z,42.56
2023-04-03T11:33:00.691Z,40.74
2023-04-03T11:35:48.540Z,41.98
2023-04-03T11:38:37.457Z,41.70
2023-04-03T11:41:27.745Z,39.90
2023-04-03T11:44:37.778Z,36.33
2023-04-03T11:47:51.457Z,37.84
2023-04-03T11:50:42.114Z,39.31
2023-04-03T11:53:40.248Z,40.44
2023-04-03T11:56:28.023Z,40.38
2023-04-03T11:59:24.522Z,39.29
2023-04-03T12:02:51.676Z,35.81
2023-04-03T12:05:44.398Z,38.33
2023-04-03T12:08:42.834Z,37.15
2023-04-03T12:11:32.667Z,37.36
2023-04-03T12:14:19.145Z,37.56
2023-04-03T12:17:25.612Z,36.92
2023-04-03T12:20:51.811Z,36.13
2023-04-03T12:24:09.135Z,37.49
2023-04-03T12:26:58.234Z,38.36
2023-04-03T12:30:05.015Z,38.74
2023-04-03T12:33:12.529Z,37.43
2023-04-03T12:36:19.620Z,38.03
2023-04-03T12:39:07.429Z,39.29
2023-04-03T12:42:10.713Z,37.45
2023-04-03T12:44:59.614Z,38.23
2023-04-03T12:47:46.428Z,37.96
2023-04-03T12:50:37.184Z,37.92
2023-04-03T12:53:39.635Z,37.96
2023-04-03T12:56:28.266Z,38.89
2023-04-03T12:59:27.778Z,39.28
2023-04-03T13:02:27.354Z,39.48
2023-04-03T13:05:18.651Z,40.34
2023-04-03T13:08:09.708Z,40.08
2023-04-03T13:11:00.583Z,40.49
2023-04-03T13:13:58.811Z,40.41
2023-04-03T13:17:05.733Z,40.90
2023-04-03T13:19:52.441Z,40.43
2023-04-03T13:22:49.599Z,40.46
2023-04-03T13:25:37.803Z,40.84
2023-04-03T13:28:25.014Z,41.10
2023-04-03T13:31:15.218Z,41.34
2023-04-03T13:34:10.508Z,42.51
2023-04-03T13:36:59.528Z,42.43
2023-04-03T13:39:45.462Z,42.57
2023-04-03T13:42:34.140Z,43.33
2023-04-03T13:45:31.055Z,43.52
2023-04-03T13:48:23.729Z,43.50
2023-04-03T13:51:12.865Z,43.65
2023-04-03T13:54:11.464Z,44.22
2023-04-03T13:56:58.716Z,43.80
2023-04-03T13:59:45.791Z,43.90
2023-04-03T14:02:33.793Z,43.88
2023-04-03T14:05:22.454Z,44.59
2023-04-03T14:08:08.503Z,44.68
2023-04-03T14:10:54.662Z,44.13
2023-04-03T14:13:40.602Z,44.42
2023-04-03T14:16:30.644Z,45.40
2023-04-03T14:19:22.774Z,45.20
2023-04-03T14:22:36.417Z,45.35
2023-04-03T14:25:24.933Z,45.65
2023-04-03T14:28:18.117Z,45.88
2023-04-03T14:31:03.874Z,46.18
2023-04-03T14:33:50.519Z,45.65
2023-04-03T14:36:36.702Z,45.92
2023-04-03T14:39:22.978Z,45.94
2023-04-03T14:42:15.719Z,45.84
2023-04-03T14:45:04.394Z,46.12
2023-04-03T14:47:52.961Z,46.48
2023-04-03T14:50:38.961Z,46.18
2023-04-03T14:53:37.908Z,46.27
2023-04-03T14:56:29.060Z,47.58
2023-04-03T14:59:16.519Z,46.54
2023-04-03T15:02:02.225Z,46.89
2023-04-03T15:04:48.237Z,46.91
2023-04-03T15:07:39.172Z,48.98
2023-04-03T15:10:27.283Z,47.14
2023-04-03T15:13:13.888Z,47.33
2023-04-03T15:16:00.537Z,47.32
2023-04-03T15:18:47.539Z,47.47
2023-04-03T15:21:33.527Z,47.75
2023-04-03T15:24:19.596Z,49.04
2023-04-03T15:27:05.227Z,48.44
2023-04-03T15:29:51.441Z,48.70
2023-04-03T15:32:37.538Z,48.98
2023-04-03T15:35:24.005Z,49.42
2023-04-03T16:03:36.133Z,54.86
2023-04-03T16:06:22.605Z,53.34
2023-04-03T16:09:10.069Z,53.08
2023-04-03T16:11:56.246Z,52.77
2023-04-03T16:14:42.424Z,53.23
2023-04-03T16:17:28.833Z,53.15
2023-04-03T16:20:15.769Z,53.09
2023-04-03T16:23:02.240Z,52.72
2023-04-03T16:25:49.027Z,52.77
2023-04-03T16:28:34.874Z,52.75
2023-04-03T16:31:21.468Z,53.30
2023-04-03T16:34:07.491Z,52.76
2023-04-03T16:36:56.214Z,52.95
2023-04-03T16:39:41.933Z,53.64
2023-04-03T16:42:27.607Z,53.77
2023-04-03T16:45:13.568Z,53.78
2023-04-03T16:47:59.386Z,53.72
2023-04-03T16:50:50.051Z,55.25
2023-04-03T16:53:36.939Z,54.34
2023-04-03T16:56:23.291Z,54.29
2023-04-03T16:59:09.269Z,54.38
2023-04-03T17:01:55.693Z,54.62
2023-04-03T17:04:41.606Z,54.38
2023-04-03T17:07:27.458Z,54.75
2023-04-03T17:10:17.783Z,54.39
2023-04-03T17:13:12.428Z,56.50
2023-04-03T17:15:59.982Z,54.66
2023-04-03T17:18:45.801Z,54.87
2023-04-03T17:21:32.713Z,54.41
2023-04-03T17:24:18.536Z,54.27
2023-04-03T17:27:04.619Z,54.91
2023-04-03T17:29:50.469Z,54.59
2023-04-03T17:32:39.173Z,55.20
2023-04-03T17:35:25.614Z,54.99
2023-04-03T17:38:11.305Z,55.26
2023-04-03T17:41:02.221Z,56.36
2023-04-03T17:43:47.999Z,54.90
2023-04-03T17:46:34.777Z,55.13
2023-04-03T17:49:22.526Z,55.47
2023-04-03T17:52:08.985Z,55.24
2023-04-03T17:54:55.031Z,55.15
2023-04-03T17:57:40.816Z,55.15
2023-04-03T18:00:27.826Z,55.24
2023-04-03T18:03:13.827Z,55.35
2023-04-03T18:06:03.575Z,56.16
2023-04-03T18:08:52.179Z,55.58
2023-04-03T18:11:38.568Z,55.31
2023-04-03T18:14:26.242Z,55.45
2023-04-03T18:17:12.133Z,55.25
2023-04-03T18:19:58.075Z,55.79
2023-04-03T18:22:44.103Z,55.76
2023-04-03T18:28:23.315Z,55.35
2023-04-03T18:31:13.377Z,55.47
2023-04-03T18:33:59.336Z,55.41
2023-04-03T18:36:46.589Z,54.99
2023-04-03T18:39:43.717Z,55.86
2023-04-03T18:42:29.800Z,56.49
2023-04-03T18:45:18.016Z,56.40
2023-04-03T18:48:16.495Z,57.95
2023-04-03T18:51:02.917Z,55.46
2023-04-03T18:53:48.910Z,56.22
2023-04-03T18:56:34.869Z,56.25
2023-04-03T18:59:21.605Z,55.60
2023-04-03T19:02:10.941Z,56.90
2023-04-03T19:04:56.807Z,56.49
2023-04-03T19:07:44.802Z,56.45
2023-04-03T19:10:31.054Z,56.43
2023-04-03T19:14:10.507Z,58.24
2023-04-03T19:17:03.142Z,56.28
2023-04-03T19:19:49.217Z,56.03
2023-04-03T19:22:35.280Z,56.48
2023-04-03T19:25:21.638Z,56.75
2023-04-03T19:28:07.496Z,56.23
2023-04-03T19:30:53.680Z,56.54
2023-04-03T19:33:42.551Z,56.74
2023-04-03T19:36:28.342Z,56.70
2023-04-03T19:39:15.573Z,57.22
2023-04-03T19:42:02.903Z,57.04
2023-04-03T19:44:54.840Z,57.98
2023-04-03T19:47:41.378Z,57.27
2023-04-03T19:50:27.349Z,56.75
2023-04-03T19:53:18.828Z,57.21
2023-04-03T19:56:04.986Z,57.31
2023-04-03T19:58:54.369Z,57.43
2023-04-03T20:01:47.528Z,57.34
2023-04-03T20:04:33.150Z,57.43
2023-04-03T20:07:18.831Z,57.34
2023-04-03T20:10:04.722Z,57.57
2023-04-03T20:17:34.619Z,58.88
2023-04-03T20:20:55.746Z,60.03
2023-04-03T20:23:41.875Z,57.68
2023-04-03T20:26:29.918Z,57.43
2023-04-03T20:29:16.825Z,57.28
2023-04-03T20:36:59.466Z,59.56
2023-04-03T20:40:25.987Z,61.52
2023-04-03T20:43:21.900Z,59.41
2023-04-03T20:49:49.041Z,60.76
2023-04-03T20:52:36.327Z,57.92
2023-04-03T20:55:22.715Z,58.15
2023-04-03T20:58:08.687Z,58.44
2023-04-03T21:00:56.599Z,59.06
2023-04-03T21:03:43.844Z,58.38
2023-04-03T21:11:49.215Z,60.92
2023-04-03T21:15:24.235Z,60.28
2023-04-03T21:18:10.075Z,58.52
2023-04-03T21:20:56.004Z,58.62
2023-04-03T21:25:13.159Z,60.55
2023-04-03T21:27:59.254Z,58.52
2023-04-03T21:30:45.166Z,58.71
2023-04-03T21:33:31.700Z,59.06
2023-04-03T21:36:20.695Z,59.59
2023-04-03T21:39:06.412Z,58.89
2023-04-03T21:41:52.551Z,59.26
2023-04-03T21:49:14.509Z,60.57
2023-04-03T21:52:00.335Z,59.74
2023-04-03T21:54:45.940Z,60.12
2023-04-03T22:03:00.539Z,61.24
2023-04-03T22:07:24.048Z,62.53
2023-04-03T22:10:10.010Z,60.05
2023-04-03T22:12:55.912Z,59.34
2023-04-03T22:25:06.064Z,60.84
2023-04-03T22:27:51.925Z,59.97
2023-04-03T22:30:39.697Z,59.29
2023-04-03T22:33:25.691Z,60.17
2023-04-03T22:36:12.725Z,59.09
2023-04-03T22:39:00.231Z,59.96
2023-04-03T22:41:46.212Z,59.86
2023-04-03T22:49:09.144Z,58.96
2023-04-03T22:51:54.750Z,59.51
2023-04-03T22:54:40.515Z,59.00
2023-04-03T22:57:26.575Z,58.69
2023-04-03T23:00:13.237Z,59.40
2023-04-03T23:03:00.916Z,59.50
2023-04-03T23:05:47.056Z,59.16
2023-04-03T23:08:35.184Z,59.76
2023-04-03T23:11:21.459Z,59.29
2023-04-03T23:14:07.354Z,58.80
2023-04-03T23:16:53.445Z,59.38
2023-04-03T23:19:39.418Z,58.75
2023-04-03T23:22:25.431Z,59.46
2023-04-03T23:25:11.492Z,59.07
2023-04-03T23:27:57.520Z,58.92
2023-04-03T23:30:43.722Z,58.96
2023-04-03T23:33:30.817Z,58.63
2023-04-03T23:36:17.006Z,59.68
2023-04-03T23:39:03.765Z,59.16
2023-04-03T23:41:50.232Z,59.35
2023-04-03T23:44:36.453Z,59.66
2023-04-03T23:47:22.199Z,59.35
2023-04-03T23:50:08.668Z,59.58
2023-04-03T23:52:54.392Z,59.36
2023-04-03T23:55:40.342Z,59.83
2023-04-03T23:58:26.347Z,59.74
